GW1838 Weather Reports


time (UTC)temp
C
wind
direction
speed
KPH
gust
KPH
rain 1hr
cm
rain 24hr
cm
rain mn
cm
humidity
%
barometer
mb
20240222111804 1 320 1.6 4.8 0.00 0.00 0.00 82 1020.6
20240222111304 1 342 3.2 4.8 0.00 0.00 0.00 82 1020.6
20240222110804 1 324 3.2 4.8 0.00 0.00 0.00 81 1020.7
20240222110304 1 325 4.8 9.7 0.00 0.00 0.00 80 1020.7
20240222105804 1 314 3.2 4.8 0.00 0.00 0.00 79 1020.7
20240222105307 1 320 3.2 4.8 0.00 0.00 0.00 76 1020.7
20240222102305 1 123 0.0 0.0 0.00 0.00 0.00 75 1020.5
20240222101804 1 123 0.0 0.0 0.00 0.00 0.00 75 1020.4
20240222094805 2 123 1.6 3.2 0.00 0.00 0.00 74 1020.5
20240222093304 1 109 1.6 3.2 0.00 0.00 0.00 74 1020.5
20240222092804 1 61 0.0 3.2 0.00 0.00 0.00 74 1020.5
20240222092306 2 61 1.6 3.2 0.00 0.00 0.00 73 1020.6
20240222085804 2 61 3.2 4.8 0.00 0.00 0.00 73 1020.8
20240222084305 2 90 0.0 4.8 0.00 0.00 0.00 73 1020.9
20240222082305 2 60 1.6 3.2 0.00 0.00 0.00 73 1021.4
20240222081805 2 60 0.0 1.6 0.00 0.00 0.00 73 1021.5
20240222080804 2 60 0.0 4.8 0.00 0.00 0.00 73 1021.5
20240222075306 2 59 3.2 4.8 0.00 0.00 0.00 73 1021.8
20240222074804 2 59 1.6 3.2 0.00 0.00 0.00 73 1022.1
20240222073805 2 120 0.0 1.6 0.00 0.00 0.00 73 1022.0
20240222073304 2 120 0.0 0.0 0.00 0.00 0.00 73 1022.0
20240222071304 2 130 0.0 3.2 0.00 0.00 0.00 73 1022.1
20240222070803 2 130 1.6 3.2 0.00 0.00 0.00 72 1022.2
20240222065305 2 192 0.0 0.0 0.00 0.00 0.00 72 1022.4
20240222064304 2 192 0.0 3.2 0.00 0.00 0.00 72 1022.6
20240222063304 2 90 1.6 4.8 0.00 0.00 0.00 73 1022.8
20240222062305 2 129 1.6 4.8 0.00 0.00 0.00 73 1022.9
20240222060304 2 139 1.6 3.2 0.00 0.00 0.00 73 1022.8
20240222055804 2 142 0.0 3.2 0.00 0.00 0.00 73 1022.9
20240222053805 2 178 3.2 4.8 0.00 0.00 0.00 73 1023.0
20240222053304 2 192 3.2 8.0 0.00 0.00 0.00 72 1022.9
20240222051304 2 166 3.2 4.8 0.00 0.00 0.00 72 1023.3
20240222050840 2 147 4.8 9.7 0.00 0.00 0.00 72 1023.5
20240222045804 2 169 3.2 4.8 0.00 0.00 0.00 72 1023.5
20240222043804 3 114 4.8 8.0 0.00 0.00 0.00 71 1023.7
20240222043304 3 96 4.8 9.7 0.00 0.00 0.00 71 1023.7
20240222042804 3 168 4.8 4.8 0.00 0.00 0.00 71 1023.8
20240222034303 3 116 1.6 4.8 0.00 0.00 0.00 70 1024.6
20240222032804 3 121 1.6 8.0 0.00 0.00 0.00 70 1024.6
20240222031303 3 109 8.0 12.9 0.00 0.00 0.00 70 1024.6
20240222030804 3 113 8.0 12.9 0.00 0.00 0.00 70 1024.7
20240222025306 3 116 4.8 14.5 0.00 0.00 0.00 71 1025.2
20240222024803 3 105 8.0 14.5 0.00 0.00 0.00 71 1025.3
20240222024305 3 107 6.4 14.5 0.00 0.00 0.00 71 1025.3
20240222022804 3 142 4.8 9.7 0.00 0.00 0.00 71 1025.4
20240222022305 3 143 4.8 8.0 0.00 0.00 0.00 71 1025.4
20240222021804 3 115 3.2 9.7 0.00 0.00 0.00 71 1025.4
20240222020304 3 114 6.4 16.1 0.00 0.00 0.00 71 1025.3
20240222014804 3 124 4.8 11.3 0.00 0.00 0.00 70 1025.3
20240222014304 3 112 8.0 16.1 0.00 0.00 0.00 70 1025.5
20240222013804 3 111 4.8 14.5 0.00 0.00 0.00 69 1025.6
20240222013304 3 116 4.8 14.5 0.00 0.00 0.00 70 1025.8
20240222011804 3 139 4.8 11.3 0.00 0.00 0.00 69 1025.8
20240222010803 3 115 8.0 14.5 0.00 0.00 0.00 70 1025.7
20240222010304 3 117 6.4 19.3 0.00 0.00 0.00 69 1025.7
20240222005307 3 100 14.5 25.7 0.00 0.00 0.00 69 1025.7
20240222004804 3 104 11.3 19.3 0.00 0.00 0.00 69 1025.7
20240222004303 3 106 9.7 19.3 0.00 0.00 0.00 69 1025.6
20240222003804 3 109 9.7 19.3 0.00 0.00 0.00 69 1025.6
20240222002805 3 110 11.3 19.3 0.00 0.00 0.00 69 1025.5
20240222001805 3 98 14.5 24.1 0.00 0.00 0.00 70 1025.4
20240222001305 3 108 11.3 24.1 0.00 0.00 0.00 69 1025.5
20240221235806 3 105 12.9 20.9 0.00 0.00 0.00 69 1025.9
20240221235306 3 102 11.3 19.3 0.00 0.00 0.00 69 1025.9
20240221234806 3 117 11.3 19.3 0.00 0.00 0.00 68 1026.0
20240221233305 3 119 11.3 19.3 0.00 0.00 0.00 69 1026.2
20240221232806 3 121 8.0 16.1 0.00 0.00 0.00 68 1026.3
20240221232306 3 125 4.8 16.1 0.00 0.00 0.00 67 1026.3
20240221230805 3 109 9.7 16.1 0.00 0.00 0.00 69 1026.5
20240221223306 3 125 6.4 16.1 0.00 0.00 0.00 69 1026.6
20240221222805 3 118 8.0 16.1 0.00 0.00 0.00 69 1026.6
20240221222307 3 99 9.7 16.1 0.00 0.00 0.00 68 1026.6
20240221220306 3 94 4.8 14.5 0.00 0.00 0.00 67 1026.8
20240221214806 3 104 12.9 22.5 0.00 0.00 0.00 67 1026.8
20240221213805 3 98 9.7 19.3 0.00 0.00 0.00 67 1026.8
20240221213306 3 75 8.0 12.9 0.00 0.00 0.00 66 1026.7
20240221212306 3 69 9.7 19.3 0.00 0.00 0.00 66 1026.9
20240221210806 4 89 9.7 19.3 0.00 0.00 0.00 65 1026.9
20240221205305 4 99 11.3 20.9 0.00 0.00 0.00 68 1026.8
20240221204806 4 98 9.7 19.3 0.00 0.00 0.00 66 1026.7
20240221202306 4 102 12.9 20.9 0.00 0.00 0.00 65 1026.9
20240221201305 4 102 8.0 16.1 0.00 0.00 0.00 64 1027.1
20240221200805 5 85 8.0 19.3 0.00 0.00 0.00 63 1027.1
20240221194305 5 105 9.7 19.3 0.00 0.00 0.00 63 1027.0
20240221193306 5 95 8.0 11.3 0.00 0.00 0.00 63 1027.1
20240221192306 5 87 8.0 19.3 0.00 0.00 0.00 64 1027.2
20240221191305 5 108 9.7 19.3 0.00 0.00 0.00 62 1027.3
20240221190305 5 110 8.0 14.5 0.00 0.00 0.00 61 1027.5
20240221185806 5 106 4.8 11.3 0.00 0.00 0.00 63 1027.6
20240221184305 5 90 9.7 14.5 0.00 0.00 0.00 62 1027.8
20240221183807 5 92 8.0 12.9 0.00 0.00 0.00 63 1027.9
20240221183306 5 108 9.7 16.1 0.00 0.00 0.00 62 1028.0
20240221175806 5 90 8.0 14.5 0.00 0.00 0.00 61 1028.5
20240221174306 5 94 8.0 14.5 0.00 0.00 0.00 62 1028.7
20240221172805 5 108 9.7 19.3 0.00 0.00 0.00 63 1028.9
20240221172306 5 104 9.7 19.3 0.00 0.00 0.00 62 1029.0
20240221171805 5 108 8.0 16.1 0.00 0.00 0.00 61 1029.1
20240221171306 5 97 8.0 16.1 0.00 0.00 0.00 62 1029.2
20240221170305 5 103 9.7 19.3 0.00 0.00 0.00 65 1029.5
20240221164806 5 90 8.0 19.3 0.00 0.00 0.00 62 1029.9
20240221164306 5 100 8.0 16.1 0.00 0.00 0.00 63 1030.0
20240221163306 5 96 11.3 19.3 0.00 0.00 0.00 64 1030.1
20240221162805 5 92 9.7 16.1 0.00 0.00 0.00 64 1030.3
20240221161805 4 87 11.3 19.3 0.00 0.00 0.00 63 1030.5
20240221160805 4 88 9.7 19.3 0.00 0.00 0.00 64 1030.6
20240221154805 4 86 8.0 16.1 0.00 0.00 0.00 65 1030.9
20240221152806 4 92 14.5 27.4 0.00 0.00 0.00 65 1030.8
20240221151305 4 99 8.0 22.5 0.00 0.00 0.00 64 1030.9
20240221150806 4 98 11.3 22.5 0.00 0.00 0.00 67 1030.9
20240221150305 3 97 14.5 22.5 0.00 0.00 0.00 65 1031.0
20240221145806 3 107 11.3 22.5 0.00 0.00 0.00 65 1031.0
20240221144805 3 91 14.5 24.1 0.00 0.00 0.00 66 1031.1
20240221144306 3 103 14.5 22.5 0.00 0.00 0.00 66 1031.2
20240221142805 3 86 12.9 19.3 0.00 0.00 0.00 66 1031.2
20240221142306 3 93 11.3 19.3 0.00 0.00 0.00 66 1031.1
20240221135805 4 103 12.9 19.3 0.00 0.00 0.00 67 1031.1
20240221135306 3 82 11.3 19.3 0.00 0.00 0.00 68 1031.1
20240221134805 3 101 9.7 19.3 0.00 0.00 0.00 68 1031.0
20240221132805 3 108 12.9 25.7 0.00 0.00 0.00 68 1030.7
20240221132306 3 82 14.5 20.9 0.00 0.00 0.00 68 1030.7
20240221131306 3 101 11.3 20.9 0.00 0.00 0.00 68 1030.7
20240221130807 3 97 11.3 19.3 0.00 0.00 0.00 68 1030.8
20240221125307 3 100 9.7 20.9 0.00 0.00 0.00 67 1030.7
20240221124805 3 96 11.3 22.5 0.00 0.00 0.00 68 1030.7
20240221122306 3 98 12.9 19.3 0.00 0.00 0.00 70 1030.4
20240221115805 3 113 9.7 19.3 0.00 0.00 0.00 69 1030.2
20240221115306 3 110 9.7 20.9 0.00 0.00 0.00 70 1030.2
20240221114305 3 118 8.0 19.3 0.00 0.00 0.00 70 1030.2
20240221113805 3 101 11.3 20.9 0.00 0.00 0.00 70 1030.2